Time;durP1;ratioP1;P1;durP2;ratioP2;P2;SDS_P1;SDS_P2;PMS_P1;PMS_P2;Temp;Humidity;BMP_temperature;BMP_pressure;BME280_temperature;BME280_humidity;BME280_pressure;Samples;Min_cycle;Max_cycle;Signal;HPM_P1;HPM_P2
2024/04/15 00:00:31;;;;;;;3.57;1.60;;;;;;;9.49;44.02;100124.25;5451186;26;20879;-65
2024/04/15 00:02:58;;;;;;;6.20;2.60;;;;;;;9.45;44.01;100118.28;5451315;26;20230;-67
2024/04/15 00:05:27;;;;;;;8.13;2.57;;;;;;;9.47;44.06;100120.88;5451736;26;20812;-66
2024/04/15 00:07:57;;;;;;;4.17;2.10;;;;;;;9.49;44.35;100127.69;5449531;26;20292;-67
2024/04/15 00:10:28;;;;;;;5.00;2.10;;;;;;;9.47;44.40;100120.88;5451224;26;20241;-67
2024/04/15 00:12:55;;;;;;;6.60;1.90;;;;;;;9.50;44.54;100121.69;5451498;26;20268;-66
2024/04/15 00:15:25;;;;;;;4.10;1.70;;;;;;;9.51;44.61;100128.53;5449649;26;20297;-66
2024/04/15 00:17:52;;;;;;;3.70;2.10;;;;;;;9.46;44.33;100122.56;5451138;26;20230;-67
2024/04/15 00:20:22;;;;;;;3.77;1.90;;;;;;;9.39;44.98;100116.63;5450325;26;20573;-65
2024/04/15 00:22:49;;;;;;;6.50;2.40;;;;;;;9.38;45.03;100112.31;5450194;26;20744;-65
2024/04/15 00:25:22;;;;;;;4.13;1.90;;;;;;;9.33;45.04;100115.78;5451607;26;20293;-65
2024/04/15 00:27:49;;;;;;;4.70;2.47;;;;;;;9.30;45.03;100100.38;5451597;26;20254;-65
2024/04/15 00:30:19;;;;;;;3.97;1.83;;;;;;;9.28;45.18;100107.22;5441635;26;20580;-66
2024/04/15 00:32:46;;;;;;;4.00;1.83;;;;;;;9.32;45.35;100106.38;5448623;26;20296;-68
2024/04/15 00:35:16;;;;;;;5.20;2.00;;;;;;;9.33;45.64;100097.78;5451520;26;20234;-66
2024/04/15 00:37:43;;;;;;;4.80;2.00;;;;;;;9.30;45.54;100098.66;5451892;26;20329;-66
2024/04/15 00:40:13;;;;;;;2.57;1.73;;;;;;;9.33;45.81;100102.94;5451080;26;20238;-65
2024/04/15 00:42:43;;;;;;;5.57;2.00;;;;;;;9.33;45.62;100095.22;5451225;26;20230;-66
2024/04/15 00:45:31;;;;;;;7.53;2.30;;;;;;;9.32;45.76;100091.78;5451533;26;20238;-65
2024/04/15 00:47:59;;;;;;;6.20;2.27;;;;;;;9.32;45.70;100096.09;5447058;26;20288;-65
2024/04/15 00:50:30;;;;;;;5.50;2.53;;;;;;;9.28;45.81;100095.25;5442841;26;20353;-65
2024/04/15 00:53:01;;;;;;;4.67;2.20;;;;;;;9.19;46.26;100085.84;5437234;26;20292;-67
2024/04/15 00:55:34;;;;;;;4.90;2.20;;;;;;;9.22;46.39;100085.00;5451206;26;20325;-66
2024/04/15 00:58:06;;;;;;;4.47;2.00;;;;;;;9.24;46.37;100082.41;5450708;26;20238;-66
2024/04/15 01:00:36;;;;;;;3.63;1.83;;;;;;;9.24;46.21;100083.25;5449783;26;20261;-66
2024/04/15 01:03:05;;;;;;;6.63;2.00;;;;;;;9.22;45.76;100071.28;5450897;26;20234;-65
2024/04/15 01:05:37;;;;;;;5.40;2.20;;;;;;;9.17;46.32;100061.03;5451120;26;20705;-67
2024/04/15 01:08:05;;;;;;;7.93;2.37;;;;;;;9.21;46.37;100059.31;5443279;26;20852;-70
2024/04/15 01:10:35;;;;;;;3.63;1.93;;;;;;;9.14;46.33;100061.06;5450507;26;20233;-67
2024/04/15 01:13:08;;;;;;;5.37;2.50;;;;;;;9.03;46.37;100057.69;5443087;26;20233;-66
2024/04/15 01:15:38;;;;;;;4.70;2.37;;;;;;;8.95;46.87;100050.88;5449338;26;20326;-67
2024/04/15 01:18:05;;;;;;;6.93;2.03;;;;;;;8.89;47.17;100040.59;5449909;26;20241;-67
2024/04/15 01:20:36;;;;;;;4.90;2.07;;;;;;;8.92;47.27;100034.59;5425074;26;20342;-66
2024/04/15 01:23:10;;;;;;;5.77;2.13;;;;;;;8.94;47.26;100022.59;5449986;26;20234;-66
2024/04/15 01:25:42;;;;;;;5.67;2.23;;;;;;;8.95;47.06;100020.03;5443398;26;20350;-67
2024/04/15 01:28:10;;;;;;;7.03;2.20;;;;;;;8.97;47.45;100026.88;5450063;26;20245;-67
2024/04/15 01:30:40;;;;;;;3.33;1.60;;;;;;;8.91;47.41;100012.31;5450749;26;20670;-67
2024/04/15 01:33:07;;;;;;;7.93;2.20;;;;;;;8.86;47.74;100012.34;5453672;26;20305;-66
2024/04/15 01:35:37;;;;;;;5.07;1.90;;;;;;;8.86;47.73;100014.06;5453927;26;20280;-69
2024/04/15 01:38:04;;;;;;;5.40;2.20;;;;;;;8.85;47.80;100020.94;5453512;26;20284;-65
2024/04/15 01:40:34;;;;;;;3.60;2.20;;;;;;;8.84;47.93;100010.66;5452232;26;20230;-66
2024/04/15 01:43:04;;;;;;;7.10;2.53;;;;;;;8.75;47.85;100010.69;5450327;26;20721;-66
2024/04/15 01:45:34;;;;;;;4.20;2.27;;;;;;;8.67;48.27;100006.44;5452172;26;20466;-65
2024/04/15 01:48:02;;;;;;;9.43;2.40;;;;;;;8.61;48.25;100003.91;5453369;26;20333;-68
2024/04/15 01:50:32;;;;;;;6.27;2.03;;;;;;;8.54;48.50;99996.22;5453412;26;20237;-62
2024/04/15 01:52:59;;;;;;;6.77;2.20;;;;;;;8.52;48.79;100009.09;5453333;26;20230;-61
2024/04/15 01:55:29;;;;;;;7.07;2.40;;;;;;;8.46;49.09;99991.13;5453209;26;20230;-62
2024/04/15 01:57:56;;;;;;;4.47;1.70;;;;;;;8.45;49.50;99989.44;5453146;26;20234;-63
2024/04/15 02:00:29;;;;;;;5.33;2.40;;;;;;;8.44;49.27;99985.16;5448644;26;20258;-64
2024/04/15 02:02:56;;;;;;;7.40;2.60;;;;;;;8.49;49.35;99980.84;5450529;26;20286;-63
2024/04/15 02:05:26;;;;;;;6.20;2.83;;;;;;;8.46;49.49;99975.72;5452222;26;20296;-62
2024/04/15 02:07:56;;;;;;;6.43;2.20;;;;;;;8.48;50.06;99971.44;5452981;26;20343;-63
2024/04/15 02:10:26;;;;;;;4.40;1.87;;;;;;;8.50;49.82;99967.13;5453180;26;20338;-62
2024/04/15 02:12:53;;;;;;;5.97;1.90;;;;;;;8.46;49.61;99957.75;5453302;26;20280;-64
2024/04/15 02:15:23;;;;;;;4.30;2.47;;;;;;;8.48;49.95;99958.59;5448109;26;20246;-63
2024/04/15 02:17:53;;;;;;;5.13;1.90;;;;;;;8.48;49.74;99961.19;5452067;26;20746;-62
2024/04/15 02:20:23;;;;;;;4.57;2.27;;;;;;;8.46;49.59;99965.44;5452121;26;20628;-63
2024/04/15 02:22:50;;;;;;;3.43;1.80;;;;;;;8.43;49.87;99974.03;5450812;26;20613;-64
2024/04/15 02:25:20;;;;;;;5.67;1.90;;;;;;;8.41;49.85;99973.19;5452130;26;20627;-62
2024/04/15 02:27:47;;;;;;;4.73;2.10;;;;;;;8.40;50.13;99965.50;5452764;26;20321;-62
2024/04/15 02:30:17;;;;;;;7.80;2.50;;;;;;;8.37;50.24;99965.47;5452574;26;20250;-63
2024/04/15 02:32:44;;;;;;;6.40;2.37;;;;;;;8.35;50.41;99970.59;5448526;26;20250;-62
2024/04/15 02:35:16;;;;;;;5.63;2.27;;;;;;;8.34;50.82;99958.63;5452564;26;20290;-64
2024/04/15 02:37:44;;;;;;;3.90;2.03;;;;;;;8.38;50.87;99957.78;5452521;26;20238;-62
2024/04/15 02:40:14;;;;;;;7.13;3.10;;;;;;;8.42;50.96;99958.63;5450090;26;20242;-62
2024/04/15 02:42:42;;;;;;;6.17;2.60;;;;;;;8.44;50.63;99965.47;5442996;26;20230;-64
2024/04/15 02:45:12;;;;;;;6.70;2.53;;;;;;;8.44;50.80;99969.75;5451914;26;20246;-63
2024/04/15 02:47:40;;;;;;;6.43;2.40;;;;;;;8.38;51.04;99969.75;5451063;26;20258;-63
2024/04/15 02:50:10;;;;;;;6.80;2.27;;;;;;;8.38;51.20;99982.59;5448520;26;20306;-62
2024/04/15 02:52:43;;;;;;;6.13;2.50;;;;;;;8.40;51.72;99994.59;5452209;26;20277;-61
2024/04/15 02:55:11;;;;;;;6.30;2.73;;;;;;;8.42;51.39;99997.97;5449077;26;20242;-62
2024/04/15 02:57:40;;;;;;;4.53;2.27;;;;;;;8.41;51.52;99993.72;5452254;26;20230;-63
2024/04/15 03:00:08;;;;;;;4.77;2.30;;;;;;;8.43;51.47;99998.84;5450270;26;20350;-66
2024/04/15 03:02:38;;;;;;;6.27;2.40;;;;;;;8.41;51.63;99988.59;5441982;26;20234;-67
2024/04/15 03:05:06;;;;;;;3.73;2.03;;;;;;;8.40;51.72;99993.75;5452230;26;20230;-68
2024/04/15 03:07:36;;;;;;;6.63;2.50;;;;;;;8.36;51.69;99986.88;5452237;26;20277;-66
2024/04/15 03:10:07;;;;;;;4.40;2.13;;;;;;;8.36;51.92;99980.03;5452436;26;20230;-66
2024/04/15 03:12:36;;;;;;;10.07;2.57;;;;;;;8.36;51.96;99979.19;5449646;26;20349;-66
2024/04/15 03:15:04;;;;;;;6.53;2.20;;;;;;;8.40;51.94;99975.75;5449632;26;20253;-65
2024/04/15 03:17:34;;;;;;;6.97;2.23;;;;;;;8.42;52.08;99974.03;5448887;26;20316;-66
2024/04/15 03:20:04;;;;;;;5.83;2.50;;;;;;;8.45;51.93;99971.44;5449935;26;20331;-66
2024/04/15 03:22:34;;;;;;;4.50;2.23;;;;;;;8.48;51.96;99965.47;5451951;26;20269;-65
2024/04/15 03:25:01;;;;;;;5.00;2.13;;;;;;;8.42;51.68;99956.06;5452383;26;20290;-67
2024/04/15 03:27:35;;;;;;;5.53;2.30;;;;;;;8.45;52.00;99961.19;5451569;26;20238;-67
2024/04/15 03:30:03;;;;;;;4.03;1.97;;;;;;;8.45;52.30;99961.19;5448608;26;20292;-65
2024/04/15 03:32:33;;;;;;;4.30;2.10;;;;;;;8.43;51.80;99962.88;5449890;26;20262;-66
2024/04/15 03:35:00;;;;;;;5.67;2.10;;;;;;;8.41;52.09;99962.06;5449684;26;20291;-67
2024/04/15 03:37:30;;;;;;;6.40;2.63;;;;;;;8.41;52.22;99959.50;5450150;26;20265;-65
2024/04/15 03:40:00;;;;;;;7.13;2.40;;;;;;;8.41;52.23;99962.06;5451703;26;20732;-65
2024/04/15 03:42:30;;;;;;;7.10;2.53;;;;;;;8.42;52.23;99966.31;5452668;26;20269;-65
2024/04/15 03:45:02;;;;;;;6.43;2.10;;;;;;;8.40;52.30;99963.78;5451742;26;20338;-68
2024/04/15 03:47:29;;;;;;;4.27;2.13;;;;;;;8.39;52.67;99971.47;5449803;26;20238;-69
2024/04/15 03:49:59;;;;;;;5.17;2.67;;;;;;;8.39;52.74;99969.75;5452495;26;20784;-66
2024/04/15 03:52:26;;;;;;;7.50;2.50;;;;;;;8.41;53.13;99969.75;5449361;26;20331;-66
2024/04/15 03:54:56;;;;;;;9.40;2.83;;;;;;;8.43;52.50;99963.78;5430187;26;20338;-65
2024/04/15 03:57:23;;;;;;;6.37;2.67;;;;;;;8.43;52.68;99962.88;5451780;26;20242;-69
2024/04/15 03:59:53;;;;;;;5.63;2.57;;;;;;;8.44;52.76;99944.06;5451720;26;20289;-68
2024/04/15 04:02:23;;;;;;;7.90;3.10;;;;;;;8.44;52.46;99923.53;5451136;26;20246;-67
2024/04/15 04:04:53;;;;;;;6.90;3.07;;;;;;;8.45;52.60;99920.09;5449240;26;20242;-66
2024/04/15 04:07:21;;;;;;;5.50;3.03;;;;;;;8.43;52.66;99917.56;5450910;26;20230;-67
2024/04/15 04:09:51;;;;;;;8.57;2.70;;;;;;;8.44;52.54;99920.97;5451408;26;20246;-63
2024/04/15 04:12:19;;;;;;;6.73;2.87;;;;;;;8.44;52.58;99914.13;5447898;26;20257;-64
2024/04/15 04:14:48;;;;;;;7.27;2.97;;;;;;;8.42;52.98;99909.84;5449119;26;20570;-61
2024/04/15 04:17:16;;;;;;;5.93;2.50;;;;;;;8.45;53.45;99907.25;5449704;26;20246;-61
2024/04/15 04:19:48;;;;;;;12.57;2.80;;;;;;;8.48;53.04;99917.53;5451367;26;20234;-61
2024/04/15 04:22:16;;;;;;;9.70;2.60;;;;;;;8.51;53.10;99921.81;5449287;26;20293;-63
2024/04/15 04:24:46;;;;;;;8.77;2.70;;;;;;;8.55;53.19;99926.91;5450854;26;20268;-63
2024/04/15 04:27:13;;;;;;;6.67;3.07;;;;;;;8.60;53.22;99932.00;5450719;26;20728;-64
2024/04/15 04:29:43;;;;;;;9.23;2.73;;;;;;;8.63;52.91;99925.13;5449368;26;20246;-63
2024/04/15 04:32:10;;;;;;;8.23;2.70;;;;;;;8.65;53.32;99933.69;5443368;26;20254;-63
2024/04/15 04:34:40;;;;;;;8.53;2.87;;;;;;;8.61;52.31;99926.84;5450114;26;20637;-61
2024/04/15 04:37:14;;;;;;;8.50;2.63;;;;;;;8.55;52.75;99933.75;5443785;26;20263;-61
2024/04/15 04:39:45;;;;;;;9.03;2.40;;;;;;;8.51;52.65;99929.50;5446936;26;20236;-63
2024/04/15 04:42:12;;;;;;;6.97;2.73;;;;;;;8.51;52.89;99930.34;5452566;26;20281;-63
2024/04/15 04:44:42;;;;;;;7.97;2.37;;;;;;;8.50;52.96;99928.63;5450431;26;20254;-64
2024/04/15 04:47:10;;;;;;;7.93;2.57;;;;;;;8.46;52.72;99926.94;5447840;26;20292;-61
2024/04/15 04:49:40;;;;;;;10.30;2.63;;;;;;;8.48;52.81;99917.53;5451578;26;20234;-63
2024/04/15 04:52:07;;;;;;;11.77;2.83;;;;;;;8.47;52.99;99900.41;5452311;26;20330;-64
2024/04/15 04:54:39;;;;;;;8.90;2.53;;;;;;;8.48;52.99;99899.56;5451474;26;20242;-65
2024/04/15 04:57:08;;;;;;;6.43;2.07;;;;;;;8.45;53.10;99897.00;5452179;26;20222;-62
2024/04/15 04:59:38;;;;;;;7.60;2.77;;;;;;;8.42;53.25;99903.00;5451401;26;20730;-63
2024/04/15 05:02:05;;;;;;;8.33;2.60;;;;;;;8.40;52.97;99902.16;5448916;26;20257;-64
2024/04/15 05:04:36;;;;;;;6.33;2.20;;;;;;;8.38;52.88;99890.19;5451012;26;20234;-62
2024/04/15 05:07:03;;;;;;;5.50;2.47;;;;;;;8.46;53.45;99901.25;5451084;26;20218;-60
2024/04/15 05:09:33;;;;;;;8.83;2.93;;;;;;;8.50;53.47;99900.38;5441828;26;20346;-62
2024/04/15 05:12:04;;;;;;;6.50;2.50;;;;;;;8.61;53.55;99910.59;5445167;26;20645;-63
2024/04/15 05:14:34;;;;;;;11.20;3.10;;;;;;;8.68;53.34;99922.53;5446321;26;20929;-61
2024/04/15 05:17:01;;;;;;;10.90;2.80;;;;;;;8.71;53.50;99913.09;5443464;26;20249;-64
2024/04/15 05:19:31;;;;;;;13.37;3.13;;;;;;;8.78;53.39;99913.06;5445168;26;20725;-68
2024/04/15 05:21:58;;;;;;;11.17;3.00;;;;;;;8.81;53.29;99920.75;5449850;26;20288;-66
2024/04/15 05:24:28;;;;;;;7.87;2.20;;;;;;;8.86;53.18;99911.28;5445308;26;20652;-65
2024/04/15 05:26:55;;;;;;;9.03;3.00;;;;;;;8.88;52.83;99909.59;5446736;26;20242;-66
2024/04/15 05:29:30;;;;;;;13.07;3.07;;;;;;;8.87;52.69;99897.56;5447941;26;20297;-67
2024/04/15 05:31:57;;;;;;;12.30;3.27;;;;;;;8.84;52.54;99888.19;5447448;26;20242;-67
2024/04/15 05:34:27;;;;;;;12.60;2.50;;;;;;;8.82;52.62;99889.06;5450071;26;20709;-67
2024/04/15 05:36:54;;;;;;;8.97;2.93;;;;;;;8.83;53.04;99885.63;5448357;26;20362;-67
2024/04/15 05:39:24;;;;;;;15.73;2.73;;;;;;;8.82;52.72;99886.50;5445944;26;20234;-66
2024/04/15 05:41:51;;;;;;;5.00;2.30;;;;;;;8.82;52.53;99892.47;5439122;26;20246;-66
2024/04/15 05:44:21;;;;;;;10.43;2.97;;;;;;;8.78;52.88;99888.22;5446987;26;20889;-68
2024/04/15 05:46:52;;;;;;;8.30;2.80;;;;;;;8.75;53.32;99887.41;5443187;26;20305;-65
2024/04/15 05:49:21;;;;;;;8.67;2.53;;;;;;;8.73;53.37;99895.13;5446228;26;20254;-66
2024/04/15 05:51:49;;;;;;;8.03;2.60;;;;;;;8.78;53.45;99898.50;5444684;26;20990;-66
2024/04/15 05:54:19;;;;;;;12.27;3.07;;;;;;;8.84;53.88;99897.63;5448428;26;20264;-66
2024/04/15 05:56:46;;;;;;;8.63;2.83;;;;;;;8.86;53.66;99895.88;5449187;26;20274;-65
2024/04/15 05:59:15;;;;;;;10.97;2.80;;;;;;;8.85;53.99;99894.19;5447050;26;20705;-66
2024/04/15 06:01:43;;;;;;;8.60;2.40;;;;;;;8.80;54.21;99883.94;5439719;26;20577;-65
2024/04/15 06:04:15;;;;;;;9.20;2.53;;;;;;;8.81;54.37;99884.78;5440447;26;20277;-64
2024/04/15 06:06:43;;;;;;;14.33;2.63;;;;;;;8.79;54.43;99878.81;5444368;26;20246;-66
2024/04/15 06:09:12;;;;;;;12.33;3.27;;;;;;;8.83;54.73;99889.03;5443213;26;20284;-65
2024/04/15 06:11:40;;;;;;;11.87;3.17;;;;;;;8.87;55.57;99885.63;5439034;26;21703;-65
2024/04/15 06:14:10;;;;;;;13.97;3.00;;;;;;;8.92;55.72;99883.00;5444710;26;20755;-65
2024/04/15 06:16:38;;;;;;;11.67;2.70;;;;;;;8.97;55.79;99877.81;5442911;26;20359;-64
2024/04/15 06:19:08;;;;;;;14.40;3.20;;;;;;;8.93;55.42;99888.13;5452739;26;20246;-65
2024/04/15 06:21:38;;;;;;;17.53;3.53;;;;;;;8.87;55.64;99892.44;5452950;26;20290;-65
2024/04/15 06:24:08;;;;;;;10.27;2.80;;;;;;;8.75;56.77;99882.25;5452398;26;20242;-66
2024/04/15 06:26:40;;;;;;;13.63;3.70;;;;;;;8.68;56.02;99882.28;5450470;26;20242;-66
2024/04/15 06:29:07;;;;;;;11.93;3.23;;;;;;;8.62;55.98;99877.22;5447064;26;21156;-66
2024/04/15 06:31:37;;;;;;;12.17;3.87;;;;;;;8.55;56.42;99878.13;5437138;26;20233;-69
2024/04/15 06:34:04;;;;;;;21.17;4.00;;;;;;;8.59;56.42;99886.66;5452011;26;20353;-68
2024/04/15 06:36:34;;;;;;;13.10;3.13;;;;;;;8.57;56.72;99886.66;5443241;26;20310;-70
2024/04/15 06:39:04;;;;;;;19.57;3.87;;;;;;;8.58;56.83;99883.22;5446492;26;20346;-69
2024/04/15 06:41:33;;;;;;;12.77;3.57;;;;;;;8.63;56.93;99890.91;5426937;26;20630;-71
2024/04/15 06:44:00;;;;;;;11.70;3.10;;;;;;;8.65;57.04;99902.88;5452855;26;20783;-68
2024/04/15 06:46:31;;;;;;;11.43;2.90;;;;;;;8.63;57.27;99896.88;5450178;26;20247;-69
2024/04/15 06:48:58;;;;;;;12.17;2.97;;;;;;;8.60;57.51;99902.03;5454243;26;20253;-70
2024/04/15 06:51:28;;;;;;;9.20;3.00;;;;;;;8.58;57.67;99892.63;5454850;26;20248;-70
2024/04/15 06:53:55;;;;;;;9.17;3.00;;;;;;;8.61;57.86;99890.03;5449194;26;20656;-70
2024/04/15 06:56:28;;;;;;;5.60;2.50;;;;;;;8.59;58.54;99897.78;5454582;26;20222;-70
2024/04/15 06:58:55;;;;;;;10.50;2.60;;;;;;;8.53;59.34;99884.97;5453873;26;20226;-67
2024/04/15 07:01:25;;;;;;;9.27;2.37;;;;;;;8.48;59.79;99861.03;5449396;26;20246;-68
2024/04/15 07:03:52;;;;;;;5.03;2.37;;;;;;;8.45;59.82;99858.47;5433393;26;20254;-69
2024/04/15 07:06:22;;;;;;;6.37;2.40;;;;;;;8.43;60.67;99862.75;5452831;26;20288;-68
2024/04/15 07:08:49;;;;;;;6.93;2.80;;;;;;;8.42;60.92;99864.47;5449202;26;20294;-67
2024/04/15 07:11:19;;;;;;;7.50;2.50;;;;;;;8.42;61.33;99866.19;5448427;26;20245;-69
2024/04/15 07:13:49;;;;;;;5.53;2.37;;;;;;;8.45;61.53;99869.59;5452255;26;20233;-70
2024/04/15 07:16:19;;;;;;;7.73;2.80;;;;;;;8.51;61.67;99873.00;5453170;26;20800;-71
2024/04/15 07:18:46;;;;;;;10.87;2.90;;;;;;;8.56;61.86;99871.25;5454274;26;20234;-70
2024/04/15 07:21:17;;;;;;;8.27;2.33;;;;;;;8.62;62.10;99864.38;5454387;26;20709;-65
2024/04/15 07:23:45;;;;;;;6.90;2.07;;;;;;;8.65;62.00;99858.34;5453172;26;20238;-68
2024/04/15 07:26:15;;;;;;;6.57;2.23;;;;;;;8.68;62.28;99856.59;5445099;26;20692;-68
2024/04/15 07:28:42;;;;;;;6.43;2.13;;;;;;;8.75;62.83;99854.00;5451583;26;20234;-69
2024/04/15 07:31:15;;;;;;;7.20;2.03;;;;;;;8.78;63.08;99862.53;5453869;26;20246;-67
2024/04/15 07:33:42;;;;;;;7.73;2.27;;;;;;;8.82;63.10;99864.22;5453051;26;20284;-69
2024/04/15 07:36:12;;;;;;;4.47;2.23;;;;;;;8.84;63.22;99861.66;5449185;26;20285;-70
2024/04/15 07:38:39;;;;;;;7.23;2.03;;;;;;;8.83;63.51;99858.22;5442477;26;20314;-68
2024/04/15 07:41:09;;;;;;;5.20;1.97;;;;;;;8.82;63.53;99855.66;5450750;26;20254;-61
2024/04/15 07:43:36;;;;;;;5.17;1.70;;;;;;;8.86;64.10;99844.50;5448346;26;20301;-64
2024/04/15 07:46:06;;;;;;;8.97;1.97;;;;;;;8.87;64.03;99839.38;5452707;26;20657;-64
2024/04/15 07:48:39;;;;;;;3.60;1.70;;;;;;;8.88;64.48;99838.50;5452898;26;20633;-63
2024/04/15 07:51:06;;;;;;;4.83;1.80;;;;;;;8.86;64.43;99841.94;5451752;26;20234;-61
2024/04/15 07:53:36;;;;;;;5.10;1.67;;;;;;;8.82;64.61;99853.09;5450364;26;20230;-63
2024/04/15 07:56:03;;;;;;;8.53;2.13;;;;;;;8.76;65.05;99853.13;5452049;26;20617;-62
2024/04/15 07:58:34;;;;;;;5.87;1.83;;;;;;;8.66;65.79;99849.78;5451178;26;20696;-62
2024/04/15 08:01:01;;;;;;;3.60;1.77;;;;;;;8.59;66.27;99837.84;5442989;26;20748;-62
2024/04/15 08:03:32;;;;;;;5.60;2.23;;;;;;;8.57;66.75;99843.00;5451652;26;20230;-62
2024/04/15 08:06:02;;;;;;;2.73;1.50;;;;;;;8.58;66.27;99831.88;5451863;26;20234;-61
2024/04/15 08:08:32;;;;;;;6.07;2.20;;;;;;;8.53;66.40;99836.16;5452168;26;20572;-61
2024/04/15 08:11:01;;;;;;;4.20;1.90;;;;;;;8.55;66.69;99834.47;5451337;26;20234;-64
2024/04/15 08:13:33;;;;;;;3.57;1.90;;;;;;;8.64;66.77;99826.66;5449934;26;20632;-63
2024/04/15 08:16:01;;;;;;;4.23;1.80;;;;;;;8.71;66.86;99828.34;5450192;26;20226;-62
2024/04/15 08:18:31;;;;;;;3.53;1.67;;;;;;;8.73;66.25;99822.31;5449292;26;20229;-64
2024/04/15 08:20:58;;;;;;;4.73;1.80;;;;;;;8.70;66.00;99813.78;5444701;26;20234;-65
2024/04/15 08:23:31;;;;;;;4.10;1.87;;;;;;;8.70;66.45;99810.38;5452122;26;20234;-66
2024/04/15 08:25:58;;;;;;;6.27;1.50;;;;;;;8.74;66.14;99813.78;5452350;26;20330;-65
2024/04/15 08:28:28;;;;;;;5.70;2.07;;;;;;;8.79;65.96;99802.59;5450889;26;20629;-63
2024/04/15 08:30:55;;;;;;;5.23;1.73;;;;;;;8.92;65.57;99813.63;5442206;26;20322;-62
2024/04/15 08:33:25;;;;;;;3.77;1.40;;;;;;;9.04;64.91;99821.22;5444555;26;20925;-64
2024/04/15 08:35:52;;;;;;;6.47;1.80;;;;;;;9.04;63.42;99823.78;5435591;26;20285;-63
2024/04/15 08:38:22;;;;;;;5.63;1.83;;;;;;;9.08;63.80;99829.75;5451345;26;20322;-63
2024/04/15 08:40:57;;;;;;;3.77;1.47;;;;;;;9.09;63.65;99819.44;5446342;26;20378;-64
2024/04/15 08:43:28;;;;;;;5.40;1.87;;;;;;;9.13;64.08;99813.44;5445270;26;20249;-60
2024/04/15 08:45:58;;;;;;;2.73;1.43;;;;;;;9.22;63.99;99821.91;5448499;26;20377;-61
2024/04/15 08:48:28;;;;;;;4.93;1.83;;;;;;;9.15;63.54;99796.25;5450399;26;20250;-63
2024/04/15 08:50:57;;;;;;;2.93;1.37;;;;;;;9.15;63.60;99805.69;5451913;26;20684;-63
2024/04/15 08:53:28;;;;;;;5.87;1.40;;;;;;;9.12;63.56;99800.59;5450258;26;20289;-66
2024/04/15 08:55:58;;;;;;;4.50;1.83;;;;;;;9.30;63.87;99796.97;5451041;26;20230;-67
2024/04/15 08:58:31;;;;;;;4.90;1.80;;;;;;;9.51;63.51;99796.75;5450831;26;20338;-68
2024/04/15 09:00:59;;;;;;;7.67;1.60;;;;;;;9.63;62.28;99803.47;5443266;26;20296;-67
2024/04/15 09:03:31;;;;;;;5.93;1.80;;;;;;;9.58;61.25;99808.69;5437965;26;20234;-66
2024/04/15 09:05:58;;;;;;;4.50;1.70;;;;;;;9.57;61.74;99804.41;5451168;26;20246;-65
2024/04/15 09:08:28;;;;;;;3.10;1.43;;;;;;;9.53;61.81;99795.00;5450939;26;20641;-66
2024/04/15 09:10:59;;;;;;;2.63;1.63;;;;;;;9.48;62.71;99803.66;5450701;26;20279;-66
2024/04/15 09:13:29;;;;;;;5.90;1.63;;;;;;;9.55;63.03;99811.28;5448209;26;20257;-64
2024/04/15 09:15:56;;;;;;;5.57;2.07;;;;;;;9.58;63.09;99805.25;5448586;26;20246;-64
2024/04/15 09:18:27;;;;;;;3.73;1.60;;;;;;;9.66;62.00;99814.59;5448831;26;20238;-67
2024/04/15 09:20:54;;;;;;;3.30;1.67;;;;;;;9.57;61.62;99804.41;5449627;26;20289;-64
2024/04/15 09:23:31;;;;;;;7.60;2.40;;;;;;;9.58;61.92;99794.97;5449806;26;20234;-65
2024/04/15 09:26:01;;;;;;;3.43;1.97;;;;;;;9.72;62.08;99790.53;5450552;26;20264;-65
2024/04/15 09:28:31;;;;;;;5.40;2.20;;;;;;;10.00;62.38;99787.59;5449867;26;20234;-66
2024/04/15 09:30:58;;;;;;;3.73;1.70;;;;;;;10.10;60.76;99790.00;5437022;26;20241;-66
2024/04/15 09:33:28;;;;;;;4.63;1.97;;;;;;;10.07;60.20;99789.19;5445197;26;20246;-67
2024/04/15 09:35:56;;;;;;;4.07;1.90;;;;;;;10.01;60.28;99784.97;5450134;26;20330;-66
2024/04/15 09:38:26;;;;;;;3.80;1.60;;;;;;;10.09;60.15;99784.91;5449259;26;20234;-67
2024/04/15 09:40:53;;;;;;;5.57;1.60;;;;;;;10.16;59.77;99779.63;5448939;26;20234;-66
2024/04/15 09:43:27;;;;;;;4.67;1.60;;;;;;;10.26;59.37;99784.69;5446110;26;20253;-68
2024/04/15 09:45:56;;;;;;;4.17;1.60;;;;;;;10.37;59.13;99772.50;5446950;26;20257;-66
2024/04/15 09:48:28;;;;;;;8.93;1.80;;;;;;;10.58;58.75;99766.16;5447838;26;20720;-66
2024/04/15 09:51:04;;;;;;;4.70;1.50;;;;;;;10.80;57.77;99771.81;5449408;26;20575;-63
2024/04/15 09:53:39;;;;;;;4.50;1.53;;;;;;;10.99;56.91;99759.44;5446986;26;20242;-66
2024/04/15 09:56:12;;;;;;;4.20;1.80;;;;;;;11.05;56.94;99752.47;5438772;26;20234;-67
2024/04/15 09:58:46;;;;;;;8.03;2.20;;;;;;;11.06;56.80;99754.16;5453579;26;20330;-66
2024/04/15 10:01:18;;;;;;;6.10;1.83;;;;;;;10.98;56.66;99750.03;5453298;26;20226;-65
2024/04/15 10:03:53;;;;;;;6.67;1.80;;;;;;;11.11;56.91;99752.34;5452143;26;20234;-65
2024/04/15 10:06:30;;;;;;;3.50;1.30;;;;;;;11.31;56.38;99743.38;5453591;26;20319;-65
2024/04/15 10:09:02;;;;;;;4.53;1.80;;;;;;;11.55;56.37;99742.03;5453032;26;20241;-65
2024/04/15 10:11:30;;;;;;;4.07;1.50;;;;;;;11.68;55.29;99751.25;5453742;26;20763;-67
2024/04/15 10:14:02;;;;;;;4.13;1.70;;;;;;;11.84;54.16;99733.72;5453629;26;20229;-68
2024/04/15 10:16:34;;;;;;;3.30;1.50;;;;;;;11.77;53.78;99752.78;5450462;26;20837;-69
2024/04/15 10:19:11;;;;;;;4.87;1.63;;;;;;;11.80;54.17;99729.47;5418363;26;20239;-68
2024/04/15 10:21:40;;;;;;;2.77;1.47;;;;;;;11.97;53.34;99724.84;5444282;26;20242;-68
2024/04/15 10:24:14;;;;;;;6.07;1.73;;;;;;;12.20;53.18;99720.88;5453117;26;20230;-68
2024/04/15 10:26:42;;;;;;;4.97;1.70;;;;;;;12.51;52.67;99721.81;5452100;26;20666;-67
2024/04/15 10:29:21;;;;;;;4.20;1.80;;;;;;;12.84;50.83;99708.06;5453648;26;20280;-68
2024/04/15 10:31:50;;;;;;;3.77;1.70;;;;;;;13.27;51.11;99697.47;5450732;26;20732;-65
2024/04/15 10:34:23;;;;;;;2.72;1.45;;;;;;;13.75;49.47;99699.50;5417182;26;20266;-65
2024/04/15 10:36:51;;;;;;;4.47;1.50;;;;;;;14.21;48.33;99688.56;5445833;26;20234;-65
2024/04/15 10:39:23;;;;;;;5.88;1.52;;;;;;;14.19;46.77;99673.97;5453501;26;20701;-66
2024/04/15 10:41:51;;;;;;;2.95;1.30;;;;;;;14.21;46.58;99678.22;5453557;26;20278;-66
2024/04/15 10:44:23;;;;;;;6.20;1.85;;;;;;;14.36;47.39;99674.28;5450654;26;20262;-67
2024/04/15 10:46:51;;;;;;;4.45;1.50;;;;;;;14.56;46.15;99677.97;5446874;26;20327;-65
2024/04/15 10:49:21;;;;;;;4.90;1.30;;;;;;;14.74;44.93;99682.53;5452542;26;20293;-65
2024/04/15 10:51:49;;;;;;;4.07;1.30;;;;;;;14.90;44.79;99688.88;5453650;26;20584;-65
2024/04/15 10:54:19;;;;;;;5.55;1.17;;;;;;;15.11;42.92;99684.66;5452982;26;20233;-65
2024/04/15 10:56:46;;;;;;;3.67;1.35;;;;;;;15.13;42.15;99666.44;5452028;26;20788;-67
2024/04/15 10:59:17;;;;;;;5.75;1.20;;;;;;;15.01;42.53;99669.47;5453112;26;20234;-68
2024/04/15 11:01:47;;;;;;;5.93;1.85;;;;;;;14.93;43.52;99668.00;5432623;26;20238;-68
2024/04/15 11:04:17;;;;;;;3.45;1.42;;;;;;;15.01;42.38;99648.72;5453325;26;20235;-65
2024/04/15 11:06:46;;;;;;;2.88;1.00;;;;;;;15.34;42.51;99655.28;5451942;26;20630;-66
2024/04/15 11:09:16;;;;;;;4.25;1.90;;;;;;;15.67;41.32;99654.94;5451890;26;20611;-66
2024/04/15 11:11:44;;;;;;;3.67;1.50;;;;;;;15.72;41.02;99652.16;5451807;26;20594;-63
2024/04/15 11:14:14;;;;;;;3.50;1.40;;;;;;;15.36;41.21;99655.22;5452336;26;20234;-64
2024/04/15 11:16:47;;;;;;;4.85;1.48;;;;;;;14.94;42.24;99659.31;5450490;26;20658;-64
2024/04/15 11:19:20;;;;;;;4.70;1.63;;;;;;;14.51;42.51;99657.41;5451266;26;20276;-66
2024/04/15 11:21:47;;;;;;;5.90;1.65;;;;;;;13.99;43.38;99652.16;5449425;26;20276;-64
2024/04/15 11:24:18;;;;;;;5.57;1.40;;;;;;;13.57;44.52;99643.09;5449796;26;20681;-63
2024/04/15 11:26:48;;;;;;;5.37;1.50;;;;;;;13.25;45.75;99650.06;5451283;26;20242;-63
2024/04/15 11:29:19;;;;;;;5.90;1.60;;;;;;;13.08;46.39;99650.53;5451403;26;20246;-62
2024/04/15 11:31:49;;;;;;;2.97;1.00;;;;;;;13.11;46.24;99645.28;5451088;26;20246;-67
2024/04/15 11:34:19;;;;;;;3.00;1.60;;;;;;;13.35;45.96;99635.97;5452572;26;20280;-65
2024/04/15 11:36:46;;;;;;;2.75;1.27;;;;;;;13.46;45.82;99644.25;5448000;26;20234;-63
2024/04/15 11:39:16;;;;;;;2.37;1.00;;;;;;;13.21;45.33;99636.34;5450697;26;20234;-64
2024/04/15 11:41:44;;;;;;;3.50;1.17;;;;;;;12.89;45.98;99639.84;5452586;26;20242;-64
2024/04/15 11:44:15;;;;;;;2.40;1.20;;;;;;;12.63;46.60;99634.50;5451013;26;20322;-63
2024/04/15 11:46:42;;;;;;;6.03;1.60;;;;;;;12.47;47.30;99616.84;5450032;26;20284;-62